Time;durP1;ratioP1;P1;durP2;ratioP2;P2;SDS_P1;SDS_P2;PMS_P1;PMS_P2;Temp;Humidity;BMP_temperature;BMP_pressure;BME280_temperature;BME280_humidity;BME280_pressure;Samples;Min_cycle;Max_cycle;Signal;HPM_P1;HPM_P2
2022/02/23 00:00:06;;;;;;;10.00;6.30;;;;;;;18.34;40.61;100865.00;101697;1348;75844;-82
2022/02/23 00:03:00;;;;;;;8.00;5.60;;;;;;;18.34;40.59;100864.86;101667;1348;61775;-83
2022/02/23 00:05:37;;;;;;;7.70;6.00;;;;;;;18.34;40.63;100867.33;101662;1348;61654;-86
2022/02/23 00:08:32;;;;;;;7.90;5.90;;;;;;;18.34;40.63;100871.79;101761;1345;73235;-84
2022/02/23 00:11:39;;;;;;;10.90;5.90;;;;;;;18.34;40.59;100871.95;101352;1351;73753;-81
2022/02/23 00:14:23;;;;;;;7.20;5.70;;;;;;;18.34;40.66;100876.61;101451;1351;61918;-83
2022/02/23 00:17:10;;;;;;;9.50;6.00;;;;;;;18.34;40.64;100874.27;101564;1347;61211;-82
2022/02/23 00:19:59;;;;;;;7.70;5.90;;;;;;;18.34;40.71;100874.83;101653;1347;74066;-78
2022/02/23 00:23:13;;;;;;;8.60;6.30;;;;;;;18.34;40.59;100875.37;101454;1350;75961;-85
2022/02/23 00:26:03;;;;;;;10.00;6.30;;;;;;;18.33;40.68;100875.77;101407;1350;61326;-82
2022/02/23 00:29:04;;;;;;;9.10;6.20;;;;;;;18.33;40.63;100875.56;101489;1350;61652;-85
2022/02/23 00:31:44;;;;;;;;;;;;;;;;;;;;;
2022/02/23 00:34:39;;;;;;;9.50;6.10;;;;;;;18.33;40.67;100875.05;101687;1345;75944;-78
2022/02/23 00:37:16;;;;;;;8.80;6.00;;;;;;;18.33;40.73;100879.15;101824;1341;62355;-83
2022/02/23 00:40:05;;;;;;;8.10;5.90;;;;;;;18.33;40.71;100880.76;101893;1341;60523;-82
2022/02/23 00:42:55;;;;;;;8.90;6.20;;;;;;;18.33;40.71;100880.59;101882;1341;72889;-83
2022/02/23 00:45:35;;;;;;;9.10;6.30;;;;;;;18.33;40.74;100883.78;101893;1341;76370;-83
2022/02/23 00:49:11;;;;;;;8.60;6.20;;;;;;;18.32;40.67;100880.06;102049;1335;61303;-79
2022/02/23 00:51:54;;;;;;;8.90;6.20;;;;;;;18.32;40.69;100878.70;102408;1335;61313;-80
2022/02/23 00:54:28;;;;;;;9.80;6.40;;;;;;;18.32;40.67;100876.69;102814;1320;73734;-82
2022/02/23 00:57:15;;;;;;;9.00;6.30;;;;;;;18.33;40.65;100883.63;103380;1320;75818;-84
2022/02/23 01:00:01;;;;;;;9.20;6.10;;;;;;;18.32;40.69;100881.69;103280;1319;61230;-86
2022/02/23 01:02:35;;;;;;;9.30;6.10;;;;;;;18.32;40.75;100882.77;103055;1320;61326;-82
2022/02/23 01:05:37;;;;;;;8.20;6.00;;;;;;;18.32;40.63;100882.78;103267;1320;73530;-81
2022/02/23 01:08:23;;;;;;;8.50;5.90;;;;;;;18.32;40.57;100883.29;103379;1320;73774;-81
2022/02/23 01:10:59;;;;;;;9.30;6.20;;;;;;;18.32;40.64;100886.72;103371;1320;61208;-82
2022/02/23 01:13:35;;;;;;;9.40;6.10;;;;;;;18.32;40.62;100884.39;103226;1319;61384;-85
2022/02/23 01:16:45;;;;;;;8.30;5.90;;;;;;;18.32;40.70;100885.98;102886;1325;71696;-79
2022/02/23 01:19:43;;;;;;;11.00;6.30;;;;;;;18.31;40.68;100887.63;102555;1329;75682;-82
2022/02/23 01:22:41;;;;;;;8.50;5.70;;;;;;;18.31;40.61;100888.17;102288;1335;61256;-83
2022/02/23 01:25:23;;;;;;;8.70;6.20;;;;;;;18.31;40.71;100888.02;102191;1332;61767;-85
2022/02/23 01:28:40;;;;;;;9.30;6.30;;;;;;;18.30;40.68;100891.42;102178;1333;71697;-83
2022/02/23 01:31:28;;;;;;;8.40;6.20;;;;;;;18.30;40.79;100895.52;102284;1334;75489;-81
2022/02/23 01:34:45;;;;;;;7.80;5.80;;;;;;;18.31;40.74;100892.65;102184;1335;61204;-83
2022/02/23 01:37:20;;;;;;;9.90;6.60;;;;;;;18.31;40.77;100896.39;102325;1332;61837;-82
2022/02/23 01:40:36;;;;;;;8.50;6.00;;;;;;;18.31;40.77;100896.36;102501;1331;72949;-83
2022/02/23 01:43:22;;;;;;;8.90;5.80;;;;;;;18.31;40.82;100899.06;101864;1340;74862;-85
2022/02/23 01:46:17;;;;;;;8.60;6.00;;;;;;;18.32;40.80;100902.76;101877;1340;62439;-79
2022/02/23 01:49:19;;;;;;;10.20;6.40;;;;;;;18.31;40.76;100907.80;101624;1347;61459;-80
2022/02/23 01:52:22;;;;;;;8.30;6.20;;;;;;;18.31;40.81;100911.16;101605;1347;74092;-84
2022/02/23 01:55:08;;;;;;;;;;;;;;;;;;;;;
2022/02/23 01:57:59;;;;;;;9.40;6.20;;;;;;;18.31;40.74;100914.57;101839;1340;61321;-86
2022/02/23 02:01:38;;;;;;;7.90;5.80;;;;;;;18.31;40.75;100917.42;102692;1325;61479;-83
2022/02/23 02:04:25;;;;;;;;;;;;;;;;;;;;;
2022/02/23 02:07:02;;;;;;;7.50;5.60;;;;;;;18.30;40.85;100919.94;102502;1332;73859;-85
2022/02/23 02:10:17;;;;;;;8.10;5.80;;;;;;;18.31;40.80;100926.14;102459;1332;61449;-85
2022/02/23 02:13:02;;;;;;;;;;;;;;;;;;;;;
2022/02/23 02:16:04;;;;;;;9.30;6.40;;;;;;;18.30;40.84;100935.24;102455;1330;72559;-85
2022/02/23 02:19:35;;;;;;;;;;;;;;;;;;;;;
2022/02/23 02:22:41;;;;;;;;;;;;;;;;;;;;;
2022/02/23 02:25:17;;;;;;;;;;;;;;;;;;;;;
2022/02/23 02:28:12;;;;;;;10.90;6.60;;;;;;;18.30;40.83;100957.88;102849;1326;73834;-84
2022/02/23 02:31:35;;;;;;;;;;;;;;;;;;;;;
2022/02/23 02:34:41;;;;;;;7.80;5.40;;;;;;;18.30;40.78;101000.84;103041;1325;61176;-85
2022/02/23 02:37:46;;;;;;;8.70;5.90;;;;;;;18.30;40.89;101008.15;102856;1325;61409;-83
2022/02/23 02:40:26;;;;;;;;;;;;;;;;;;;;;
2022/02/23 02:43:28;;;;;;;9.10;6.00;;;;;;;18.30;41.01;101041.63;103239;1320;73990;-86
2022/02/23 02:46:24;;;;;;;;;;;;;;;;;;;;;
2022/02/23 02:49:05;;;;;;;9.20;5.80;;;;;;;18.30;40.86;101051.42;102789;1326;61310;-84
2022/02/23 02:52:03;;;;;;;8.30;5.90;;;;;;;18.30;40.99;101051.26;102927;1325;72998;-84
2022/02/23 02:54:55;;;;;;;;;;;;;;;;;;;;;
2022/02/23 02:57:42;;;;;;;;;;;;;;;;;;;;;
2022/02/23 03:00:31;;;;;;;7.90;5.40;;;;;;;18.30;40.90;101064.83;103827;1313;61319;-82
2022/02/23 03:03:10;;;;;;;8.20;5.60;;;;;;;18.30;40.94;101066.41;104193;1313;73725;-83
2022/02/23 03:06:21;;;;;;;7.50;5.40;;;;;;;18.30;40.97;101069.27;104251;1313;75687;-84
2022/02/23 03:09:13;;;;;;;7.80;6.00;;;;;;;18.29;40.86;101072.15;104244;1313;61189;-82
2022/02/23 03:12:17;;;;;;;10.10;6.00;;;;;;;18.29;40.92;101078.73;104266;1313;61224;-84
2022/02/23 03:15:11;;;;;;;9.70;6.30;;;;;;;18.29;40.96;101083.38;104214;1313;74139;-81
2022/02/23 03:18:48;;;;;;;9.10;6.20;;;;;;;18.29;40.86;101081.96;103942;1313;73801;-83
2022/02/23 03:21:25;;;;;;;10.10;5.80;;;;;;;18.29;40.90;101083.60;104228;1314;61255;-83
2022/02/23 03:24:14;;;;;;;8.60;5.80;;;;;;;18.28;40.95;101085.73;104196;1314;61306;-85
2022/02/23 03:26:53;;;;;;;8.20;6.20;;;;;;;18.29;40.98;101088.56;104386;1306;73822;-83
2022/02/23 03:30:06;;;;;;;9.30;6.00;;;;;;;18.28;41.06;101093.04;104679;1306;73463;-83
2022/02/23 03:32:52;;;;;;;10.00;5.70;;;;;;;18.28;41.01;101097.52;104525;1308;61818;-83
2022/02/23 03:35:51;;;;;;;7.80;6.10;;;;;;;18.29;40.95;101098.74;104547;1306;61332;-82
2022/02/23 03:38:58;;;;;;;;;;;;;;;18.29;40.94;101101.22;104219;1314;73204;-85
2022/02/23 03:42:03;;;;;;;7.60;5.60;;;;;;;18.25;41.03;101101.41;103075;1321;75085;-84
2022/02/23 03:44:49;;;;;;;8.70;6.10;;;;;;;18.25;40.96;101100.69;103321;1322;61437;-89
2022/02/23 03:48:05;;;;;;;10.80;6.00;;;;;;;18.25;40.97;101096.56;102773;1326;61703;-83
2022/02/23 03:50:34;;;;;;;9.00;5.80;;;;;;;18.26;41.05;101094.77;102722;1326;73942;-79
2022/02/23 03:53:26;;;;;;;9.50;6.00;;;;;;;18.26;41.02;101091.17;102718;1326;75702;-78
2022/02/23 03:56:38;;;;;;;8.80;5.90;;;;;;;18.26;41.00;101090.65;102380;1332;61223;-83
2022/02/23 03:59:35;;;;;;;;;;;;;;;;;;;;;
2022/02/23 04:02:24;;;;;;;9.40;5.70;;;;;;;18.25;41.02;101091.59;102086;1338;72804;-82
2022/02/23 04:05:09;;;;;;;7.40;5.30;;;;;;;18.26;40.83;101096.20;102065;1337;74970;-82
2022/02/23 04:07:59;;;;;;;7.90;5.50;;;;;;;18.25;40.96;101100.30;102102;1338;61228;-83
2022/02/23 04:10:45;;;;;;;7.90;5.80;;;;;;;18.26;40.99;101102.79;101951;1338;61205;-82
2022/02/23 04:13:30;;;;;;;10.20;5.60;;;;;;;18.25;40.99;101104.96;101984;1338;75382;-83
2022/02/23 04:16:41;;;;;;;7.40;5.20;;;;;;;18.25;41.01;101109.58;102333;1332;75870;-82
2022/02/23 04:19:40;;;;;;;7.70;5.40;;;;;;;18.24;40.89;101112.50;102370;1335;61491;-82
2022/02/23 04:22:08;;;;;;;7.90;5.90;;;;;;;18.25;41.03;101114.95;102474;1332;61486;-82
2022/02/23 04:24:54;;;;;;;8.70;5.90;;;;;;;18.25;40.96;101120.64;102503;1327;71584;-84
2022/02/23 04:27:56;;;;;;;7.80;5.60;;;;;;;18.25;40.93;101120.09;102699;1329;62675;-81
2022/02/23 04:30:42;;;;;;;7.60;5.20;;;;;;;18.24;40.93;101123.71;102326;1334;61377;-82
2022/02/23 04:33:35;;;;;;;8.50;5.80;;;;;;;18.25;40.85;101127.44;102510;1328;61643;-82
2022/02/23 04:36:12;;;;;;;7.40;5.70;;;;;;;18.25;40.95;101129.75;102386;1332;72355;-83
2022/02/23 04:39:18;;;;;;;8.40;5.50;;;;;;;18.25;40.88;101138.63;102377;1330;73769;-86
2022/02/23 04:42:54;;;;;;;;;;;;;;;;;;;;;
2022/02/23 04:45:28;;;;;;;7.90;5.80;;;;;;;18.24;40.84;101144.41;101835;1341;61483;-83
2022/02/23 04:48:55;;;;;;;7.90;5.80;;;;;;;18.25;40.93;101146.86;101785;1341;71607;-83
2022/02/23 04:51:39;;;;;;;;;;;;;;;;;;;;;
2022/02/23 04:54:56;;;;;;;8.10;5.40;;;;;;;18.24;40.89;101160.23;101725;1342;61410;-81
2022/02/23 04:58:12;;;;;;;7.50;5.50;;;;;;;18.25;40.88;101171.08;101676;1345;61735;-83
2022/02/23 05:00:48;;;;;;;8.90;5.50;;;;;;;18.24;40.86;101175.92;101723;1343;73715;-83
2022/02/23 05:03:58;;;;;;;8.30;6.10;;;;;;;18.25;40.92;101178.73;101724;1343;74755;-79
2022/02/23 05:06:42;;;;;;;8.50;5.80;;;;;;;18.24;40.81;101186.29;101794;1337;61565;-85
2022/02/23 05:09:57;;;;;;;8.90;6.00;;;;;;;18.23;40.73;101192.17;101948;1337;61626;-85
2022/02/23 05:12:34;;;;;;;8.20;5.60;;;;;;;18.22;40.74;101196.16;101822;1337;73926;-81
2022/02/23 05:15:25;;;;;;;8.20;5.80;;;;;;;18.22;40.58;101200.11;101918;1337;75986;-82
2022/02/23 05:18:22;;;;;;;9.60;5.60;;;;;;;18.21;40.52;101202.83;101933;1337;61658;-84
2022/02/23 05:21:00;;;;;;;13.70;5.80;;;;;;;18.21;40.58;101209.23;101932;1337;61634;-82
2022/02/23 05:23:40;;;;;;;;;;;;;;;;;;;;;
2022/02/23 05:26:56;;;;;;;;;;;;;;;;;;;;;
2022/02/23 05:29:56;;;;;;;9.80;5.90;;;;;;;18.17;40.42;101229.60;103083;1322;61179;-83
2022/02/23 05:32:54;;;;;;;14.40;5.90;;;;;;;18.15;40.28;101230.37;102742;1323;61254;-80
2022/02/23 05:35:32;;;;;;;10.40;5.80;;;;;;;18.15;40.15;101237.19;103167;1322;72735;-81
2022/02/23 05:38:08;;;;;;;11.80;5.90;;;;;;;18.15;39.99;101242.35;103102;1320;74855;-80
2022/02/23 05:40:55;;;;;;;12.40;5.70;;;;;;;18.14;39.74;101244.14;102895;1323;61234;-84
2022/02/23 05:43:21;;;;;;;10.00;6.00;;;;;;;18.13;39.47;101245.98;103048;1321;61540;-80
2022/02/23 05:45:47;;;;;;;11.50;5.90;;;;;;;18.12;39.29;101248.38;102876;1322;59328;-82
2022/02/23 05:48:20;;;;;;;10.90;6.10;;;;;;;18.11;39.05;101252.34;102807;1323;75732;-81
2022/02/23 05:50:56;;;;;;;12.60;5.90;;;;;;;18.09;38.66;101253.84;102969;1320;61951;-81
2022/02/23 05:53:22;;;;;;;11.20;5.90;;;;;;;18.07;38.35;101264.61;103378;1317;61288;-79
2022/02/23 05:55:48;;;;;;;15.60;6.10;;;;;;;18.04;38.05;101268.55;103441;1317;61291;-80
2022/02/23 05:58:13;;;;;;;11.90;5.50;;;;;;;18.03;37.83;101273.22;103366;1316;61314;-80
2022/02/23 06:00:43;;;;;;;13.70;5.50;;;;;;;18.03;37.56;101272.30;103507;1317;61350;-81
2022/02/23 06:03:18;;;;;;;13.80;6.00;;;;;;;18.02;37.21;101271.29;103297;1317;61196;-79
2022/02/23 06:05:46;;;;;;;12.40;5.40;;;;;;;18.01;36.90;101277.20;103098;1316;73203;-80
2022/02/23 06:08:12;;;;;;;13.50;5.90;;;;;;;18.02;36.70;101281.66;103020;1316;74792;-81
2022/02/23 06:10:38;;;;;;;12.00;6.20;;;;;;;18.05;36.46;101285.79;103033;1317;61685;-79
2022/02/23 06:13:07;;;;;;;;;;;;;;;18.07;36.34;101283.67;102385;1317;61171;-79
2022/02/23 06:15:33;;;;;;;12.10;5.70;;;;;;;18.08;36.29;101288.83;102243;1317;65963;-79
2022/02/23 06:17:59;;;;;;;9.80;5.80;;;;;;;18.12;36.07;101289.35;102586;1317;61417;-79
2022/02/23 06:20:24;;;;;;;10.80;6.10;;;;;;;18.15;35.86;101292.04;102845;1317;61349;-79
2022/02/23 06:22:51;;;;;;;12.70;5.80;;;;;;;18.18;35.53;101291.54;102932;1316;61865;-79
2022/02/23 06:25:21;;;;;;;12.50;5.90;;;;;;;18.20;35.49;101292.48;103295;1316;61248;-79
2022/02/23 06:27:50;;;;;;;12.80;5.80;;;;;;;18.23;35.23;101292.67;103155;1316;75045;-80
2022/02/23 06:30:16;;;;;;;11.20;5.60;;;;;;;18.28;35.22;101297.26;102990;1315;61789;-80
2022/02/23 06:32:42;;;;;;;9.90;5.80;;;;;;;18.31;35.03;101299.40;103127;1318;61276;-79
2022/02/23 06:35:08;;;;;;;12.90;5.30;;;;;;;18.34;34.75;101299.77;103435;1317;61294;-79
2022/02/23 06:37:34;;;;;;;9.60;5.30;;;;;;;18.38;34.66;101301.02;103539;1316;60030;-79
2022/02/23 06:39:59;;;;;;;13.70;5.30;;;;;;;18.42;34.52;101305.23;103491;1316;61319;-79
2022/02/23 06:42:25;;;;;;;14.60;5.20;;;;;;;18.47;34.38;101308.39;103544;1317;61367;-80
2022/02/23 06:44:51;;;;;;;10.40;5.40;;;;;;;18.51;34.49;101310.84;101298;1316;2958680;-80
2022/02/23 06:47:17;;;;;;;11.00;5.20;;;;;;;18.57;34.45;101313.59;104283;1315;59305;-79
2022/02/23 06:49:43;;;;;;;19.00;5.40;;;;;;;18.62;34.42;101315.28;103456;1315;61400;-80
2022/02/23 06:52:09;;;;;;;16.30;5.60;;;;;;;18.65;34.34;101318.85;103337;1317;61369;-81
2022/02/23 06:54:35;;;;;;;36.30;6.50;;;;;;;18.64;34.30;101324.11;104131;1315;59347;-79
2022/02/23 06:57:01;;;;;;;27.00;6.00;;;;;;;18.62;34.32;101328.30;104345;1315;59723;-79
2022/02/23 06:59:27;;;;;;;18.50;6.00;;;;;;;18.62;34.44;101334.00;104373;1316;59705;-80
2022/02/23 07:01:53;;;;;;;14.60;5.60;;;;;;;18.64;34.19;101332.14;104355;1316;60155;-80
2022/02/23 07:04:18;;;;;;;17.30;5.90;;;;;;;18.65;34.33;101331.70;104342;1315;60127;-79
2022/02/23 07:06:44;;;;;;;16.80;5.10;;;;;;;18.67;34.30;101337.67;104488;1315;60799;-79
2022/02/23 07:09:10;;;;;;;13.80;5.30;;;;;;;18.70;34.51;101337.46;104365;1315;59772;-79
2022/02/23 07:11:36;;;;;;;19.80;5.40;;;;;;;18.74;34.69;101335.31;104562;1315;60291;-79
2022/02/23 07:14:03;;;;;;;13.40;4.80;;;;;;;18.79;34.69;101340.58;104406;1317;59812;-79
2022/02/23 07:16:29;;;;;;;22.60;5.50;;;;;;;18.83;34.75;101341.42;104457;1316;59562;-79
2022/02/23 07:18:54;;;;;;;20.40;5.20;;;;;;;18.85;34.61;101339.75;104273;1315;59626;-79
2022/02/23 07:21:20;;;;;;;13.10;5.20;;;;;;;18.86;34.33;101340.37;103521;1317;61331;-79
2022/02/23 07:23:46;;;;;;;17.70;5.40;;;;;;;18.86;34.40;101335.58;103592;1315;61321;-81
2022/02/23 07:26:32;;;;;;;;;;;;;;;;;;;;;
2022/02/23 07:29:07;;;;;;;13.80;5.20;;;;;;;18.88;34.10;101329.25;103247;1317;61670;-79
2022/02/23 07:31:33;;;;;;;12.40;4.90;;;;;;;18.89;34.14;101330.64;103626;1315;72870;-80
2022/02/23 07:34:00;;;;;;;13.80;5.00;;;;;;;18.89;34.02;101327.06;103278;1317;61273;-79
2022/02/23 07:36:26;;;;;;;12.00;5.10;;;;;;;18.90;33.98;101322.73;103387;1316;61189;-79
2022/02/23 07:38:52;;;;;;;9.40;4.90;;;;;;;18.90;33.84;101326.28;103714;1314;60540;-78
2022/02/23 07:41:28;;;;;;;11.10;4.80;;;;;;;18.91;33.82;101323.20;103483;1317;73749;-80
2022/02/23 07:44:04;;;;;;;8.10;4.90;;;;;;;18.92;33.48;101322.82;103363;1318;75782;-84
2022/02/23 07:46:29;;;;;;;10.30;4.80;;;;;;;18.92;33.62;101324.21;103676;1315;61401;-79
2022/02/23 07:49:00;;;;;;;11.00;4.30;;;;;;;18.93;33.58;101324.56;103227;1317;61268;-80
2022/02/23 07:51:26;;;;;;;10.30;4.40;;;;;;;18.93;33.46;101321.14;103398;1315;72851;-80
2022/02/23 07:54:02;;;;;;;11.10;5.00;;;;;;;18.94;33.23;101314.86;103138;1315;61417;-82
2022/02/23 07:56:27;;;;;;;14.80;4.90;;;;;;;18.92;33.09;101312.98;103278;1316;61347;-81
2022/02/23 07:58:53;;;;;;;11.50;4.90;;;;;;;18.87;32.85;101309.67;103248;1315;60652;-80
2022/02/23 08:01:32;;;;;;;12.70;4.30;;;;;;;18.82;33.02;101310.31;103454;1315;61435;-78
2022/02/23 08:03:58;;;;;;;10.80;4.60;;;;;;;18.79;33.35;101313.30;104007;1315;75234;-79
2022/02/23 08:06:23;;;;;;;8.30;4.00;;;;;;;18.77;33.15;101312.52;103277;1315;59912;-80
2022/02/23 08:08:49;;;;;;;10.60;4.70;;;;;;;18.75;33.03;101309.02;103218;1318;61579;-80
2022/02/23 08:11:18;;;;;;;9.80;4.40;;;;;;;18.73;32.84;101310.07;103409;1316;61471;-79
2022/02/23 08:13:44;;;;;;;12.80;4.40;;;;;;;18.72;32.98;101305.31;104237;1315;75119;-82
2022/02/23 08:21:56;;;;;;;14.00;4.40;;;;;;;18.71;32.76;101301.45;103803;1314;72863;-81
2022/02/23 08:24:23;;;;;;;11.90;4.40;;;;;;;18.71;32.63;101294.28;103614;1315;73751;-80
2022/02/23 08:26:50;;;;;;;10.10;4.40;;;;;;;18.72;32.47;101293.53;103988;1315;59649;-79
2022/02/23 08:29:15;;;;;;;13.50;4.50;;;;;;;18.73;32.31;101295.61;103507;1315;61591;-80
2022/02/23 08:31:41;;;;;;;12.40;4.60;;;;;;;18.73;32.05;101300.98;103803;1306;61295;-80
2022/02/23 08:34:06;;;;;;;10.30;4.40;;;;;;;18.70;32.02;101298.98;104017;1308;61333;-79
2022/02/23 08:36:34;;;;;;;9.30;4.90;;;;;;;18.69;31.94;101299.71;103991;1309;61344;-79
2022/02/23 08:39:00;;;;;;;10.30;4.40;;;;;;;18.69;31.74;101297.45;104330;1308;61211;-80
2022/02/23 08:41:29;;;;;;;11.20;4.40;;;;;;;18.69;31.85;101298.48;104021;1308;73147;-80
2022/02/23 08:43:55;;;;;;;7.00;4.40;;;;;;;18.69;31.69;101299.53;103993;1307;59716;-79
2022/02/23 08:46:26;;;;;;;8.80;4.50;;;;;;;18.70;31.60;101299.34;104164;1306;61185;-81
2022/02/23 08:48:52;;;;;;;10.40;4.70;;;;;;;18.70;31.51;101300.42;104353;1306;61272;-79
2022/02/23 08:51:18;;;;;;;9.70;5.10;;;;;;;18.70;31.60;101303.77;104100;1306;61147;-79
2022/02/23 08:53:44;;;;;;;10.70;4.70;;;;;;;18.71;31.46;101301.23;104027;1306;62314;-81
2022/02/23 08:56:15;;;;;;;14.20;4.90;;;;;;;18.69;31.31;101306.54;103645;1306;63450;-79
2022/02/23 08:58:41;;;;;;;10.50;5.30;;;;;;;18.56;31.16;101307.35;103728;1306;61196;-81
2022/02/23 09:01:06;;;;;;;13.00;5.30;;;;;;;18.51;31.15;101315.16;103722;1306;62149;-79
2022/02/23 09:03:32;;;;;;;16.50;5.60;;;;;;;18.47;31.08;101315.36;103935;1306;61426;-78
2022/02/23 09:05:58;;;;;;;22.40;5.50;;;;;;;18.40;31.07;101313.38;103705;1306;61287;-81
2022/02/23 09:08:24;;;;;;;11.10;5.10;;;;;;;18.37;31.17;101321.52;103656;1308;61308;-80
2022/02/23 09:10:50;;;;;;;22.60;5.40;;;;;;;18.37;31.29;101317.46;104045;1306;61406;-78
2022/02/23 09:13:15;;;;;;;12.20;5.00;;;;;;;18.38;31.31;101320.98;103859;1306;61311;-79
2022/02/23 09:15:52;;;;;;;11.20;4.30;;;;;;;18.40;31.37;101320.30;103872;1306;61388;-80
2022/02/23 09:18:18;;;;;;;12.70;4.70;;;;;;;18.42;31.31;101316.81;103739;1306;61210;-78
2022/02/23 09:20:45;;;;;;;8.90;4.20;;;;;;;18.46;31.19;101319.34;103781;1306;61262;-79
2022/02/23 09:23:11;;;;;;;9.30;4.90;;;;;;;18.49;31.15;101316.31;103800;1306;61362;-79
2022/02/23 09:25:40;;;;;;;9.40;4.50;;;;;;;18.52;31.09;101315.23;103913;1306;75221;-79
2022/02/23 09:28:15;;;;;;;7.90;4.40;;;;;;;18.55;31.03;101318.14;103891;1306;61250;-79
2022/02/23 09:30:50;;;;;;;13.10;4.90;;;;;;;18.58;31.13;101322.76;103892;1306;61722;-80
2022/02/23 09:33:18;;;;;;;12.30;5.00;;;;;;;18.62;30.97;101316.68;103876;1306;73039;-79
2022/02/23 09:35:49;;;;;;;12.40;4.90;;;;;;;18.65;30.90;101315.48;103854;1306;75780;-80
2022/02/23 09:38:17;;;;;;;11.90;4.50;;;;;;;18.68;30.80;101318.55;104171;1306;61706;-80
2022/02/23 09:40:53;;;;;;;9.40;4.40;;;;;;;18.70;30.83;101320.17;103977;1305;61193;-80
2022/02/23 09:43:19;;;;;;;12.50;4.70;;;;;;;18.73;30.90;101316.61;103779;1306;73845;-79
2022/02/23 09:46:10;;;;;;;8.60;4.70;;;;;;;18.77;30.78;101312.01;104055;1306;74736;-80
2022/02/23 09:48:38;;;;;;;11.10;4.90;;;;;;;18.79;30.63;101309.05;103488;1312;61525;-80
2022/02/23 09:51:07;;;;;;;12.30;5.50;;;;;;;18.81;30.52;101309.27;103482;1312;61282;-81
2022/02/23 09:53:33;;;;;;;10.90;4.90;;;;;;;18.82;30.53;101304.75;103069;1312;73912;-81
2022/02/23 09:56:00;;;;;;;11.90;5.80;;;;;;;18.78;30.34;101307.09;103094;1314;61403;-80
2022/02/23 09:58:26;;;;;;;14.90;6.10;;;;;;;18.73;30.11;101302.21;104063;1312;59463;-80
2022/02/23 10:00:54;;;;;;;15.20;4.80;;;;;;;18.70;30.30;101297.92;103858;1314;59953;-80
2022/02/23 10:03:21;;;;;;;10.70;4.50;;;;;;;18.70;30.35;101300.23;103923;1314;73278;-80
2022/02/23 10:05:46;;;;;;;9.50;4.70;;;;;;;18.68;30.41;101298.89;104485;1315;74952;-80
2022/02/23 10:08:12;;;;;;;9.80;4.70;;;;;;;18.69;30.43;101301.71;103857;1315;59584;-81
2022/02/23 10:10:39;;;;;;;8.70;4.50;;;;;;;18.70;30.48;101300.24;103939;1312;59663;-80
2022/02/23 10:13:05;;;;;;;14.70;5.10;;;;;;;18.70;30.36;101298.27;104259;1315;59320;-81
2022/02/23 10:15:41;;;;;;;12.10;4.60;;;;;;;18.65;30.24;101299.95;103653;1314;61261;-79
2022/02/23 10:18:19;;;;;;;9.20;4.60;;;;;;;18.64;30.31;101301.25;103783;1312;61665;-79
2022/02/23 10:20:47;;;;;;;9.70;4.20;;;;;;;18.66;30.35;101298.10;104826;1313;60537;-79
2022/02/23 10:23:20;;;;;;;9.10;4.10;;;;;;;18.69;30.31;101299.36;104830;1312;73964;-79
2022/02/23 10:26:12;;;;;;;8.20;4.00;;;;;;;18.73;30.24;101301.49;105113;1306;75666;-79
2022/02/23 10:28:38;;;;;;;8.40;4.30;;;;;;;18.78;30.15;101299.99;105234;1307;61670;-78
2022/02/23 10:31:07;;;;;;;13.00;4.20;;;;;;;18.81;30.17;101301.23;104274;1306;60632;-78
2022/02/23 10:33:36;;;;;;;10.20;4.30;;;;;;;18.83;30.33;101298.28;104106;1306;72888;-79
2022/02/23 10:36:07;;;;;;;11.20;4.60;;;;;;;18.85;30.39;101298.52;104625;1306;74908;-81
2022/02/23 10:38:39;;;;;;;10.50;4.30;;;;;;;18.88;30.48;101296.77;104799;1306;60923;-80
2022/02/23 10:41:06;;;;;;;16.90;4.90;;;;;;;18.92;30.57;101290.16;104257;1306;61288;-79
2022/02/23 10:43:43;;;;;;;12.00;5.50;;;;;;;18.95;30.64;101295.73;104210;1306;72864;-79
2022/02/23 10:46:17;;;;;;;16.10;5.20;;;;;;;18.95;30.68;101292.52;105316;1306;74808;-80
2022/02/23 10:49:02;;;;;;;16.50;5.20;;;;;;;18.93;30.65;101288.50;105313;1306;59898;-81
2022/02/23 10:51:29;;;;;;;11.50;5.70;;;;;;;18.91;30.70;101288.95;104489;1305;61919;-81
2022/02/23 10:54:03;;;;;;;16.50;6.30;;;;;;;18.85;30.73;101286.23;105084;1307;73892;-80
2022/02/23 10:56:33;;;;;;;12.50;5.80;;;;;;;18.81;30.64;101288.56;104915;1305;75333;-80
2022/02/23 10:59:10;;;;;;;14.10;5.50;;;;;;;18.79;30.66;101288.17;105128;1305;60480;-80
2022/02/23 11:01:35;;;;;;;10.90;5.60;;;;;;;18.77;30.73;101287.36;105272;1305;60255;-80
2022/02/23 11:04:01;;;;;;;14.90;5.80;;;;;;;18.75;30.67;101288.73;104995;1306;59981;-80
2022/02/23 11:06:27;;;;;;;18.70;6.00;;;;;;;18.74;30.56;101289.48;105042;1306;59625;-80
2022/02/23 11:08:54;;;;;;;14.50;6.10;;;;;;;18.74;30.83;101284.52;105156;1306;59965;-80
2022/02/23 11:11:20;;;;;;;11.40;5.50;;;;;;;18.74;30.77;101289.48;105168;1306;59313;-79
2022/02/23 11:13:47;;;;;;;14.60;5.30;;;;;;;18.74;30.64;101277.52;105256;1305;59310;-80
2022/02/23 11:16:13;;;;;;;15.70;5.70;;;;;;;18.68;30.54;101278.08;105093;1306;59522;-79
2022/02/23 11:18:42;;;;;;;13.10;4.80;;;;;;;18.67;30.57;101275.63;105145;1306;59358;-80
2022/02/23 11:21:10;;;;;;;;;;;;;;;18.70;30.59;101272.39;105218;1306;60525;-79
2022/02/23 11:23:37;;;;;;;13.40;5.70;;;;;;;18.70;30.81;101266.51;105181;1306;76282;-80
2022/02/23 11:26:03;;;;;;;14.80;5.70;;;;;;;18.76;30.98;101264.96;105025;1308;74757;-80
2022/02/23 11:28:40;;;;;;;14.00;5.70;;;;;;;18.81;30.95;101267.57;104978;1306;59643;-79
2022/02/23 11:31:10;;;;;;;9.60;5.10;;;;;;;18.82;31.04;101266.75;105262;1306;60587;-80
2022/02/23 11:33:58;;;;;;;13.60;5.60;;;;;;;18.83;30.91;101265.08;105061;1306;74855;-80
2022/02/23 11:36:35;;;;;;;10.30;4.90;;;;;;;18.85;30.82;101265.88;104462;1306;74670;-79
2022/02/23 11:39:03;;;;;;;16.50;5.80;;;;;;;18.85;30.68;101268.92;104129;1306;61232;-78
2022/02/23 11:41:33;;;;;;;12.90;5.40;;;;;;;18.85;30.45;101266.25;104125;1306;61839;-79
2022/02/23 11:44:14;;;;;;;14.30;5.60;;;;;;;18.87;30.54;101261.36;104133;1304;72740;-80
2022/02/23 11:47:07;;;;;;;13.20;5.60;;;;;;;18.89;30.45;101255.20;105149;1306;75854;-79
2022/02/23 11:49:33;;;;;;;18.00;5.80;;;;;;;18.93;30.42;101258.34;105132;1304;60744;-79
2022/02/23 11:52:15;;;;;;;14.00;5.90;;;;;;;18.96;30.49;101253.76;104879;1306;59700;-79
2022/02/23 11:55:05;;;;;;;13.20;6.20;;;;;;;18.93;30.44;101256.04;105033;1306;73826;-80
2022/02/23 11:57:54;;;;;;;15.80;5.30;;;;;;;18.86;30.58;101253.38;105188;1305;75773;-79
2022/02/23 12:00:33;;;;;;;15.10;6.50;;;;;;;18.82;30.71;101253.20;105076;1306;60607;-80
2022/02/23 12:03:00;;;;;;;12.40;6.30;;;;;;;18.81;30.74;101253.10;105222;1306;60526;-79
2022/02/23 12:05:41;;;;;;;14.50;5.50;;;;;;;18.80;30.53;101255.69;105182;1306;72943;-80
2022/02/23 12:08:36;;;;;;;13.40;6.10;;;;;;;18.79;30.49;101253.03;105173;1306;75319;-79
2022/02/23 12:11:25;;;;;;;9.70;5.80;;;;;;;18.79;30.47;101248.91;105298;1306;60491;-79
2022/02/23 12:13:55;;;;;;;13.80;7.00;;;;;;;18.80;30.41;101251.73;104660;1314;60386;-80
2022/02/23 12:16:25;;;;;;;17.70;6.50;;;;;;;18.81;30.46;101247.95;103650;1313;72918;-80
2022/02/23 12:18:56;;;;;;;13.60;6.40;;;;;;;18.83;30.29;101250.28;103602;1315;75280;-79
2022/02/23 12:21:35;;;;;;;16.40;5.80;;;;;;;18.87;30.52;101251.72;103814;1314;60620;-80
2022/02/23 12:24:01;;;;;;;16.60;6.50;;;;;;;18.90;30.38;101253.71;103627;1315;60841;-80
2022/02/23 12:26:47;;;;;;;12.80;6.10;;;;;;;18.90;30.28;101254.41;103799;1313;72986;-80
2022/02/23 12:29:15;;;;;;;13.40;5.90;;;;;;;18.89;30.25;101252.15;103665;1315;75047;-80
2022/02/23 12:31:44;;;;;;;15.50;6.20;;;;;;;18.88;30.17;101251.49;103484;1317;61229;-80
2022/02/23 12:34:15;;;;;;;17.20;6.90;;;;;;;18.85;30.21;101249.67;103292;1316;61642;-79
2022/02/23 12:36:49;;;;;;;12.70;6.30;;;;;;;18.82;30.07;101250.02;103847;1314;72682;-80
2022/02/23 12:39:45;;;;;;;13.20;6.20;;;;;;;18.80;30.11;101250.84;103821;1313;75883;-80
2022/02/23 12:42:22;;;;;;;;;;;;;;;;;;;;;
2022/02/23 12:44:49;;;;;;;15.50;6.80;;;;;;;18.83;30.48;101245.35;103098;1321;61449;-80